createdAt,value
2018-05-06T00:02:22.617Z,16.00
2018-05-06T00:04:50.338Z,15.88
2018-05-06T00:07:18.088Z,15.78
2018-05-06T00:09:45.740Z,15.91
2018-05-06T00:12:13.369Z,15.84
2018-05-06T00:14:41.014Z,15.82
2018-05-06T00:17:08.629Z,15.76
2018-05-06T00:19:36.264Z,15.34
2018-05-06T00:22:03.941Z,15.11
2018-05-06T00:24:31.592Z,14.90
2018-05-06T00:26:59.225Z,14.60
2018-05-06T00:29:26.877Z,14.88
2018-05-06T00:31:54.483Z,14.93
2018-05-06T00:34:22.218Z,15.02
2018-05-06T00:36:49.809Z,15.12
2018-05-06T00:39:17.462Z,15.18
2018-05-06T00:41:45.057Z,14.96
2018-05-06T00:44:12.696Z,14.68
2018-05-06T00:46:40.329Z,14.65
2018-05-06T00:49:07.912Z,14.72
2018-05-06T00:51:35.584Z,14.34
2018-05-06T00:54:14.871Z,14.38
2018-05-06T00:56:42.521Z,14.44
2018-05-06T00:59:10.142Z,14.63
2018-05-06T01:01:37.790Z,14.74
2018-05-06T01:04:05.405Z,14.54
2018-05-06T01:06:33.081Z,14.50
2018-05-06T01:09:00.683Z,14.40
2018-05-06T01:11:28.445Z,14.37
2018-05-06T01:13:56.096Z,14.17
2018-05-06T01:16:23.837Z,13.88
2018-05-06T01:18:51.441Z,13.59
2018-05-06T01:21:19.078Z,13.38
2018-05-06T01:23:46.708Z,13.36
2018-05-06T01:26:14.305Z,13.25
2018-05-06T01:28:42.018Z,13.29
2018-05-06T01:31:09.623Z,13.47
2018-05-06T01:33:37.301Z,13.74
2018-05-06T01:36:05.065Z,13.68
2018-05-06T01:38:32.870Z,13.78
2018-05-06T01:41:00.501Z,13.69
2018-05-06T01:43:28.172Z,13.54
2018-05-06T01:45:56.005Z,13.75
2018-05-06T01:48:23.700Z,13.79
2018-05-06T01:50:51.400Z,13.75
2018-05-06T01:53:19.068Z,13.94
2018-05-06T01:55:46.661Z,14.08
2018-05-06T01:58:14.328Z,14.11
2018-05-06T02:00:41.955Z,13.86
2018-05-06T02:03:09.533Z,13.97
2018-05-06T02:05:37.181Z,13.72
2018-05-06T02:08:04.813Z,13.51
2018-05-06T02:10:32.480Z,13.23
2018-05-06T02:13:00.185Z,13.08
2018-05-06T02:15:27.831Z,13.37
2018-05-06T02:17:55.521Z,13.42
2018-05-06T02:20:23.221Z,13.49
2018-05-06T02:22:50.851Z,13.43
2018-05-06T02:25:18.498Z,13.00
2018-05-06T02:27:46.120Z,12.69
2018-05-06T02:30:13.836Z,12.39
2018-05-06T02:32:41.386Z,12.70
2018-05-06T02:35:09.076Z,12.91
2018-05-06T02:37:36.708Z,12.93
2018-05-06T02:40:04.350Z,12.73
2018-05-06T02:42:32.081Z,12.78
2018-05-06T02:44:59.740Z,12.73
2018-05-06T02:47:27.458Z,12.78
2018-05-06T02:49:55.076Z,12.84
2018-05-06T02:52:22.746Z,12.76
2018-05-06T02:54:50.353Z,12.76
2018-05-06T02:57:17.980Z,12.39
2018-05-06T02:59:45.601Z,12.35
2018-05-06T03:02:13.238Z,12.28
2018-05-06T03:04:40.853Z,12.54
2018-05-06T03:07:08.488Z,12.57
2018-05-06T03:09:36.088Z,12.75
2018-05-06T03:12:03.697Z,12.48
2018-05-06T03:14:31.376Z,12.03
2018-05-06T03:16:59.075Z,12.00
2018-05-06T03:19:26.744Z,11.82
2018-05-06T03:21:54.423Z,11.80
2018-05-06T03:24:22.083Z,12.07
2018-05-06T03:26:49.674Z,12.22
2018-05-06T03:29:17.345Z,12.10
2018-05-06T03:31:44.971Z,11.65
2018-05-06T03:34:12.645Z,11.69
2018-05-06T03:36:40.369Z,11.92
2018-05-06T03:39:08.009Z,12.05
2018-05-06T03:41:35.615Z,11.78
2018-05-06T03:44:03.257Z,11.85
2018-05-06T03:46:30.849Z,12.01
2018-05-06T03:48:58.634Z,11.93
2018-05-06T03:51:26.310Z,11.81
2018-05-06T03:53:53.916Z,11.94
2018-05-06T03:59:46.460Z,11.70
2018-05-06T04:05:22.799Z,11.61
2018-05-06T04:07:50.426Z,11.61
2018-05-06T04:10:18.083Z,11.69
2018-05-06T04:12:45.728Z,11.65
2018-05-06T04:15:13.362Z,11.51
2018-05-06T04:17:41.013Z,11.48
2018-05-06T04:20:08.665Z,11.38
2018-05-06T04:22:36.301Z,11.28
2018-05-06T04:25:03.887Z,11.35
2018-05-06T04:27:31.543Z,11.17
2018-05-06T04:29:59.180Z,11.04
2018-05-06T04:32:26.875Z,11.14
2018-05-06T04:34:54.695Z,11.43
2018-05-06T04:37:22.357Z,11.66
2018-05-06T04:39:49.954Z,11.55
2018-05-06T04:42:17.642Z,11.73
2018-05-06T04:44:45.276Z,11.84
2018-05-06T04:47:12.925Z,12.06
2018-05-06T04:49:40.585Z,12.15
2018-05-06T04:52:08.235Z,12.19
2018-05-06T04:54:35.829Z,12.32
2018-05-06T04:57:03.487Z,12.40
2018-05-06T04:59:31.125Z,12.37
2018-05-06T05:01:58.828Z,12.41
2018-05-06T05:04:26.494Z,12.42
2018-05-06T05:06:54.152Z,12.44
2018-05-06T05:09:21.851Z,12.48
2018-05-06T05:11:49.460Z,12.67
2018-05-06T05:14:17.325Z,12.66
2018-05-06T05:16:44.978Z,12.85
2018-05-06T05:19:12.627Z,13.00
2018-05-06T05:21:40.340Z,13.11
2018-05-06T05:24:08.085Z,13.19
2018-05-06T05:26:35.731Z,13.27
2018-05-06T05:29:03.538Z,13.51
2018-05-06T05:31:31.149Z,13.68
2018-05-06T05:33:58.774Z,13.82
2018-05-06T05:36:26.392Z,13.88
2018-05-06T05:38:54.022Z,13.94
2018-05-06T05:41:21.674Z,13.97
2018-05-06T05:43:49.353Z,14.07
2018-05-06T05:46:17.130Z,14.13
2018-05-06T05:48:44.712Z,14.18
2018-05-06T05:51:12.423Z,14.28
2018-05-06T05:53:40.720Z,14.27
2018-05-06T05:56:08.505Z,14.28
2018-05-06T05:58:36.124Z,14.32
2018-05-06T06:01:03.749Z,14.39
2018-05-06T06:03:31.378Z,14.45
2018-05-06T06:05:59.034Z,14.50
2018-05-06T06:08:26.637Z,14.53
2018-05-06T06:10:54.313Z,14.56
2018-05-06T06:13:21.992Z,14.65
2018-05-06T06:15:49.636Z,14.79
2018-05-06T06:18:17.259Z,14.85
2018-05-06T06:20:44.994Z,14.93
2018-05-06T06:23:12.614Z,14.98
2018-05-06T06:25:40.261Z,15.12
2018-05-06T06:28:07.999Z,15.23
2018-05-06T06:30:35.637Z,15.37
2018-05-06T06:33:03.412Z,15.48
2018-05-06T06:35:31.070Z,15.57
2018-05-06T06:37:58.754Z,15.72
2018-05-06T06:40:26.409Z,15.86
2018-05-06T06:42:54.097Z,15.96
2018-05-06T06:45:21.806Z,16.04
2018-05-06T06:47:49.465Z,16.09
2018-05-06T06:50:17.084Z,16.21
2018-05-06T06:52:44.721Z,16.25
2018-05-06T06:55:12.369Z,16.27
2018-05-06T06:57:40.154Z,16.37
2018-05-06T07:00:07.764Z,16.42
2018-05-06T07:02:35.408Z,16.57
2018-05-06T07:05:03.032Z,16.68
2018-05-06T07:07:30.699Z,16.77
2018-05-06T07:09:58.365Z,16.83
2018-05-06T07:12:25.988Z,16.94
2018-05-06T07:14:53.632Z,17.00
2018-05-06T07:17:21.213Z,17.10
2018-05-06T07:19:48.825Z,17.20
2018-05-06T07:22:16.549Z,17.32
2018-05-06T07:24:44.228Z,17.43
2018-05-06T07:27:11.857Z,17.51
2018-05-06T07:29:39.499Z,17.53
2018-05-06T07:32:07.153Z,17.58
2018-05-06T07:34:34.809Z,17.72
2018-05-06T07:37:02.409Z,17.86
2018-05-06T07:39:30.104Z,17.93
2018-05-06T07:41:57.716Z,18.16
2018-05-06T07:44:25.439Z,18.14
2018-05-06T07:46:53.044Z,18.23
2018-05-06T07:49:21.482Z,18.39
2018-05-06T07:51:49.073Z,18.51
2018-05-06T07:54:16.843Z,18.60
2018-05-06T07:56:44.446Z,18.62
2018-05-06T07:59:12.049Z,18.72
2018-05-06T08:01:39.674Z,18.79
2018-05-06T08:04:07.280Z,18.84
2018-05-06T08:06:34.908Z,18.91
2018-05-06T08:09:02.578Z,18.99
2018-05-06T08:11:30.213Z,19.05
2018-05-06T08:13:57.884Z,19.09
2018-05-06T08:16:25.647Z,19.20
2018-05-06T08:18:53.188Z,19.29
2018-05-06T08:21:20.988Z,19.37
2018-05-06T08:23:48.611Z,19.50
2018-05-06T08:26:16.237Z,19.58
2018-05-06T08:28:43.977Z,19.65
2018-05-06T08:31:11.663Z,19.83
2018-05-06T08:33:39.256Z,19.99
2018-05-06T08:36:06.903Z,20.15
2018-05-06T08:38:34.525Z,20.29
2018-05-06T08:41:02.545Z,20.35
2018-05-06T08:43:30.188Z,20.47
2018-05-06T08:45:57.896Z,20.38
2018-05-06T08:48:25.544Z,20.37
2018-05-06T08:50:53.145Z,20.44
2018-05-06T08:53:20.798Z,20.56
2018-05-06T08:55:48.396Z,20.72
2018-05-06T08:58:16.040Z,20.96
2018-05-06T09:00:43.642Z,21.18
2018-05-06T09:03:11.321Z,21.23
2018-05-06T09:05:38.932Z,21.37
2018-05-06T09:08:06.582Z,21.42
2018-05-06T09:10:34.184Z,21.56
2018-05-06T09:13:01.821Z,21.58
2018-05-06T09:15:29.444Z,21.64
2018-05-06T09:17:57.076Z,21.79
2018-05-06T09:20:24.679Z,21.93
2018-05-06T09:22:52.294Z,21.95
2018-05-06T09:25:20.009Z,21.96
2018-05-06T09:27:47.512Z,22.00
2018-05-06T09:30:15.171Z,22.14
2018-05-06T09:32:42.834Z,22.31
2018-05-06T09:35:10.521Z,22.57
2018-05-06T09:37:38.176Z,22.72
2018-05-06T09:40:05.774Z,22.76
2018-05-06T09:42:33.384Z,22.80
2018-05-06T09:45:01.030Z,22.99
2018-05-06T09:47:28.647Z,22.96
2018-05-06T09:49:56.339Z,22.93
2018-05-06T09:52:24.137Z,23.00
2018-05-06T09:54:51.761Z,23.14
2018-05-06T09:57:19.382Z,23.29
2018-05-06T09:59:47.008Z,23.26
2018-05-06T10:02:14.627Z,23.24
2018-05-06T10:04:42.326Z,23.44
2018-05-06T10:07:09.919Z,23.72
2018-05-06T10:09:37.567Z,23.64
2018-05-06T10:12:05.240Z,23.87
2018-05-06T10:14:33.006Z,24.00
2018-05-06T10:17:00.635Z,24.16
2018-05-06T10:19:28.245Z,24.17
2018-05-06T10:21:55.872Z,24.48
2018-05-06T10:24:23.503Z,24.11
2018-05-06T10:26:51.139Z,24.11
2018-05-06T10:29:18.739Z,24.20
2018-05-06T10:31:46.401Z,24.29
2018-05-06T10:34:14.025Z,24.74
2018-05-06T10:36:41.694Z,24.65
2018-05-06T10:39:09.294Z,25.09
2018-05-06T10:41:36.995Z,25.11
2018-05-06T10:44:04.707Z,25.12
2018-05-06T10:46:32.352Z,25.42
2018-05-06T10:48:59.988Z,25.44
2018-05-06T10:51:27.631Z,25.76
2018-05-06T10:53:55.239Z,25.35
2018-05-06T10:56:22.877Z,25.45
2018-05-06T10:58:50.474Z,25.84
2018-05-06T11:01:18.106Z,25.87
2018-05-06T11:03:45.696Z,25.63
2018-05-06T11:06:13.347Z,25.75
2018-05-06T11:08:41.149Z,25.85
2018-05-06T11:11:08.796Z,25.92
2018-05-06T11:13:36.436Z,26.16
2018-05-06T11:16:04.054Z,26.55
2018-05-06T11:18:31.685Z,26.75
2018-05-06T11:20:59.310Z,26.96
2018-05-06T11:23:26.957Z,27.09
2018-05-06T11:25:54.639Z,27.10
2018-05-06T11:28:22.260Z,26.87
2018-05-06T11:30:49.856Z,26.91
2018-05-06T11:33:17.582Z,27.03
2018-05-06T11:35:45.162Z,27.02
2018-05-06T11:38:12.871Z,27.15
2018-05-06T11:40:40.529Z,27.33
2018-05-06T11:43:08.186Z,27.79
2018-05-06T11:45:35.798Z,27.79
2018-05-06T11:48:03.503Z,28.04
2018-05-06T11:50:31.174Z,28.31
2018-05-06T11:52:58.768Z,28.06
2018-05-06T11:55:26.406Z,28.04
2018-05-06T11:57:54.061Z,28.29
2018-05-06T12:00:21.713Z,28.55
2018-05-06T12:02:49.321Z,28.62
2018-05-06T12:05:16.957Z,28.51
2018-05-06T12:07:44.592Z,28.14
2018-05-06T12:10:12.318Z,28.11
2018-05-06T12:12:39.928Z,28.30
2018-05-06T12:15:07.554Z,28.57
2018-05-06T12:17:35.152Z,28.85
2018-05-06T12:20:02.810Z,28.72
2018-05-06T12:22:30.482Z,28.56
2018-05-06T12:24:58.215Z,28.97
2018-05-06T12:27:25.816Z,29.33
2018-05-06T12:29:53.457Z,29.38
2018-05-06T12:32:21.060Z,29.35
2018-05-06T12:34:48.769Z,29.46
2018-05-06T12:37:16.373Z,29.41
2018-05-06T12:39:43.972Z,29.83
2018-05-06T12:42:11.596Z,29.76
2018-05-06T12:44:39.202Z,29.64
2018-05-06T12:47:06.857Z,29.59
2018-05-06T12:49:34.468Z,29.70
2018-05-06T12:52:02.112Z,29.85
2018-05-06T12:54:29.701Z,29.52
2018-05-06T12:56:57.358Z,29.40
2018-05-06T12:59:24.974Z,29.75
2018-05-06T13:01:52.885Z,30.22
2018-05-06T13:04:20.520Z,30.30
2018-05-06T13:06:48.160Z,30.22
2018-05-06T13:09:15.789Z,30.59
2018-05-06T13:11:43.432Z,30.69
2018-05-06T13:14:11.096Z,30.56
2018-05-06T13:16:38.756Z,30.34
2018-05-06T13:19:06.613Z,30.50
2018-05-06T13:21:34.225Z,30.41
2018-05-06T13:24:01.898Z,30.33
2018-05-06T13:26:29.519Z,30.44
2018-05-06T13:28:57.298Z,30.46
2018-05-06T13:31:25.005Z,30.36
2018-05-06T13:33:52.747Z,30.19
2018-05-06T13:36:20.355Z,30.59
2018-05-06T13:38:47.980Z,30.58
2018-05-06T13:41:15.678Z,30.98
2018-05-06T13:43:43.341Z,30.76
2018-05-06T13:46:10.966Z,30.72
2018-05-06T13:48:38.716Z,31.03
2018-05-06T13:51:06.313Z,31.06
2018-05-06T13:53:33.952Z,31.20
2018-05-06T13:56:01.574Z,31.30
2018-05-06T13:58:29.208Z,31.72
2018-05-06T14:00:56.895Z,32.12
2018-05-06T14:03:24.526Z,31.83
2018-05-06T14:05:52.145Z,31.93
2018-05-06T14:08:19.777Z,31.78
2018-05-06T14:10:47.374Z,31.62
2018-05-06T14:13:15.001Z,31.80
2018-05-06T14:15:42.595Z,31.95
2018-05-06T14:18:10.250Z,31.73
2018-05-06T14:20:37.841Z,31.97
2018-05-06T14:23:05.460Z,32.32
2018-05-06T14:25:33.121Z,32.29
2018-05-06T14:28:00.805Z,32.41
2018-05-06T14:30:28.437Z,32.66
2018-05-06T14:32:56.038Z,32.94
2018-05-06T14:35:23.653Z,33.05
2018-05-06T14:37:51.277Z,32.74
2018-05-06T14:40:19.160Z,32.84
2018-05-06T14:42:46.761Z,32.57
2018-05-06T14:45:14.619Z,32.65
2018-05-06T14:47:53.951Z,33.25
2018-05-06T14:50:21.624Z,33.63
2018-05-06T14:52:49.238Z,33.52
2018-05-06T14:55:16.872Z,33.25
2018-05-06T14:57:44.615Z,33.11
2018-05-06T15:00:12.261Z,33.35
2018-05-06T15:02:39.967Z,32.92
2018-05-06T15:05:07.610Z,32.79
2018-05-06T15:07:35.350Z,32.52
2018-05-06T15:10:03.004Z,32.02
2018-05-06T15:12:30.610Z,32.08
2018-05-06T15:14:58.282Z,32.05
2018-05-06T15:17:25.905Z,32.34
2018-05-06T15:19:53.515Z,32.78
2018-05-06T15:22:21.214Z,32.69
2018-05-06T15:24:48.802Z,32.80
2018-05-06T15:27:16.441Z,32.91
2018-05-06T15:29:44.102Z,33.09
2018-05-06T15:32:11.753Z,33.36
2018-05-06T15:34:39.369Z,32.73
2018-05-06T15:37:07.014Z,32.17
2018-05-06T15:39:34.628Z,32.21
2018-05-06T15:42:02.284Z,32.38
2018-05-06T15:44:29.889Z,32.38
2018-05-06T15:46:57.586Z,32.59
2018-05-06T15:49:25.188Z,32.78
2018-05-06T15:51:52.833Z,32.26
2018-05-06T15:54:20.431Z,32.12
2018-05-06T15:56:48.048Z,32.43
2018-05-06T15:59:15.673Z,32.09
2018-05-06T16:01:43.328Z,32.06
2018-05-06T16:04:17.538Z,32.36
2018-05-06T16:06:45.324Z,32.85
2018-05-06T16:09:13.029Z,32.91
2018-05-06T16:11:40.663Z,32.69
2018-05-06T16:14:08.298Z,32.26
2018-05-06T16:16:35.933Z,32.15
2018-05-06T16:19:03.604Z,32.29
2018-05-06T16:21:31.249Z,32.46
2018-05-06T16:23:58.901Z,32.79
2018-05-06T16:26:26.508Z,32.53
2018-05-06T16:28:54.183Z,32.56
2018-05-06T16:31:21.764Z,32.61
2018-05-06T16:33:49.409Z,32.81
2018-05-06T16:36:17.048Z,32.99
2018-05-06T16:38:44.672Z,32.99
2018-05-06T16:41:12.389Z,32.86
2018-05-06T16:43:40.049Z,32.92
2018-05-06T16:46:07.642Z,32.97
2018-05-06T16:48:35.336Z,32.62
2018-05-06T16:51:02.948Z,32.30
2018-05-06T16:53:30.542Z,32.61
2018-05-06T16:55:58.181Z,32.55
2018-05-06T16:58:25.816Z,32.78
2018-05-06T17:00:53.492Z,32.58
2018-05-06T17:03:21.092Z,31.79
2018-05-06T17:05:48.720Z,31.89
2018-05-06T17:08:16.325Z,31.63
2018-05-06T17:10:43.997Z,31.82
2018-05-06T17:13:11.603Z,31.85
2018-05-06T17:15:39.244Z,31.97
2018-05-06T17:18:06.858Z,32.14
2018-05-06T17:20:34.650Z,31.86
2018-05-06T17:23:02.343Z,31.82
2018-05-06T17:25:30.054Z,31.44
2018-05-06T17:27:57.708Z,31.12
2018-05-06T17:30:25.362Z,31.05
2018-05-06T17:32:53.101Z,31.06
2018-05-06T17:35:20.844Z,30.92
2018-05-06T17:37:48.529Z,30.70
2018-05-06T17:40:16.160Z,30.18
2018-05-06T17:42:43.886Z,30.12
2018-05-06T17:45:11.421Z,29.92
2018-05-06T17:47:39.077Z,29.86
2018-05-06T17:50:06.822Z,29.46
2018-05-06T17:52:34.441Z,29.32
2018-05-06T17:55:02.068Z,29.22
2018-05-06T17:57:29.734Z,28.95
2018-05-06T17:59:57.353Z,28.63
2018-05-06T18:02:25.035Z,28.37
2018-05-06T18:04:52.692Z,28.42
2018-05-06T18:07:20.306Z,28.28
2018-05-06T18:09:47.952Z,27.92
2018-05-06T18:12:15.568Z,27.52
2018-05-06T18:14:43.328Z,27.30
2018-05-06T18:17:10.917Z,27.22
2018-05-06T18:19:38.576Z,27.08
2018-05-06T18:22:06.196Z,26.86
2018-05-06T18:24:33.928Z,26.68
2018-05-06T18:27:01.496Z,26.67
2018-05-06T18:29:29.142Z,26.70
2018-05-06T18:31:56.767Z,26.64
2018-05-06T18:34:24.422Z,26.63
2018-05-06T18:36:52.081Z,26.42
2018-05-06T18:39:19.768Z,26.22
2018-05-06T18:41:47.364Z,26.11
2018-05-06T18:44:15.010Z,26.33
2018-05-06T18:46:42.632Z,26.56
2018-05-06T18:49:10.280Z,27.56
2018-05-06T18:51:37.889Z,28.04
2018-05-06T18:54:05.506Z,28.27
2018-05-06T18:56:33.180Z,28.41
2018-05-06T18:59:00.796Z,28.40
2018-05-06T19:01:28.423Z,28.13
2018-05-06T19:03:56.072Z,28.10
2018-05-06T19:06:23.726Z,27.63
2018-05-06T19:08:51.307Z,26.80
2018-05-06T19:11:18.974Z,26.41
2018-05-06T19:13:46.648Z,26.04
2018-05-06T19:16:14.317Z,25.64
2018-05-06T19:18:41.911Z,25.42
2018-05-06T19:21:09.565Z,25.12
2018-05-06T19:23:37.234Z,25.03
2018-05-06T19:26:04.888Z,25.01
2018-05-06T19:28:32.513Z,24.96
2018-05-06T19:31:00.180Z,24.79
2018-05-06T19:33:27.816Z,24.70
2018-05-06T19:35:55.427Z,24.56
2018-05-06T19:38:23.076Z,24.44
2018-05-06T19:40:50.688Z,24.36
2018-05-06T19:43:18.329Z,24.37
2018-05-06T19:45:45.964Z,24.31
2018-05-06T19:48:13.603Z,24.10
2018-05-06T19:50:41.222Z,24.05
2018-05-06T19:53:08.901Z,24.04
2018-05-06T19:55:36.494Z,24.00
2018-05-06T19:58:04.122Z,24.06
2018-05-06T20:00:31.751Z,24.14
2018-05-06T20:02:59.397Z,24.13
2018-05-06T20:05:27.004Z,24.20
2018-05-06T20:07:54.676Z,23.93
2018-05-06T20:10:22.319Z,23.72
2018-05-06T20:12:50.028Z,23.63
2018-05-06T20:15:17.683Z,23.48
2018-05-06T20:17:45.264Z,23.25
2018-05-06T20:20:12.901Z,23.19
2018-05-06T20:22:40.511Z,23.00
2018-05-06T20:25:08.145Z,22.84
2018-05-06T20:27:35.760Z,22.75
2018-05-06T20:30:03.379Z,22.67
2018-05-06T20:32:31.053Z,22.55
2018-05-06T20:34:58.780Z,22.51
2018-05-06T20:37:26.493Z,22.52
2018-05-06T20:39:54.148Z,22.60
2018-05-06T20:42:21.893Z,22.63
2018-05-06T20:44:49.557Z,22.52
2018-05-06T20:47:17.184Z,22.44
2018-05-06T20:49:45.062Z,22.40
2018-05-06T20:52:12.659Z,22.46
2018-05-06T20:54:40.301Z,22.38
2018-05-06T20:57:08.053Z,22.27
2018-05-06T20:59:35.661Z,22.19
2018-05-06T21:02:03.374Z,22.30
2018-05-06T21:06:57.947Z,22.23
2018-05-06T21:09:25.644Z,22.27
2018-05-06T21:11:53.406Z,22.23
2018-05-06T21:14:21.013Z,22.30
2018-05-06T21:16:48.774Z,22.40
2018-05-06T21:19:16.404Z,22.45
2018-05-06T21:21:44.126Z,22.45
2018-05-06T21:24:11.723Z,22.45
2018-05-06T21:26:39.385Z,22.38
2018-05-06T21:29:07.037Z,22.08
2018-05-06T21:31:34.807Z,21.64
2018-05-06T21:34:02.418Z,21.48
2018-05-06T21:36:30.106Z,21.49
2018-05-06T21:38:57.697Z,21.36
2018-05-06T21:41:25.337Z,21.40
2018-05-06T21:43:52.981Z,21.39
2018-05-06T21:46:20.654Z,21.53
2018-05-06T21:48:48.314Z,21.53
2018-05-06T21:51:15.940Z,21.45
2018-05-06T21:53:43.560Z,21.39
2018-05-06T21:56:11.158Z,21.31
2018-05-06T21:58:38.882Z,21.23
2018-05-06T22:01:06.521Z,21.23
2018-05-06T22:03:34.174Z,21.17
2018-05-06T22:06:01.817Z,21.19
2018-05-06T22:08:29.408Z,21.04
2018-05-06T22:10:57.067Z,20.96
2018-05-06T22:13:24.776Z,20.85
2018-05-06T22:15:52.438Z,20.83
2018-05-06T22:18:20.049Z,20.82
2018-05-06T22:20:47.741Z,20.59
2018-05-06T22:23:15.354Z,20.61
2018-05-06T22:25:43.102Z,20.52
2018-05-06T22:28:10.697Z,20.50
2018-05-06T22:30:38.358Z,20.48
2018-05-06T22:33:05.948Z,20.29
2018-05-06T22:35:33.585Z,20.49
2018-05-06T22:38:01.318Z,20.59
2018-05-06T22:40:28.961Z,20.55
2018-05-06T22:42:56.560Z,20.54
2018-05-06T22:45:24.201Z,20.48
2018-05-06T22:47:51.821Z,20.36
2018-05-06T22:50:19.454Z,20.28
2018-05-06T22:52:47.085Z,20.05
2018-05-06T22:55:14.865Z,19.60
2018-05-06T22:57:42.496Z,19.56
2018-05-06T23:00:10.102Z,19.33
2018-05-06T23:02:37.729Z,19.22
2018-05-06T23:05:05.328Z,19.14
2018-05-06T23:07:32.986Z,19.02
2018-05-06T23:10:00.598Z,18.98
2018-05-06T23:12:28.242Z,18.95
2018-05-06T23:14:55.844Z,18.86
2018-05-06T23:17:23.493Z,18.60
2018-05-06T23:19:51.105Z,18.70
2018-05-06T23:22:18.850Z,18.66
2018-05-06T23:24:46.352Z,18.59
2018-05-06T23:27:14.004Z,18.59
2018-05-06T23:29:41.613Z,18.66
2018-05-06T23:32:09.213Z,18.50
2018-05-06T23:34:36.882Z,18.47
2018-05-06T23:37:04.520Z,18.33
2018-05-06T23:39:32.149Z,18.15
2018-05-06T23:41:59.749Z,17.93
2018-05-06T23:44:27.444Z,17.90
2018-05-06T23:46:55.038Z,17.87
2018-05-06T23:49:22.677Z,17.77
2018-05-06T23:51:50.291Z,17.62
2018-05-06T23:54:17.926Z,17.58
2018-05-06T23:56:45.536Z,17.61
2018-05-06T23:59:13.173Z,17.70
